Roma, Italy

04:57 AM CET die 18o January, anno 2019 (GMT +0100)
El_Popo | | Change Station

Elev 1295 ft 41.73 °N, 12.66 °E | Updated 30 seconds ago

Pluvia
Pluvia
47.7 °F
Feels Like 46 °F
N
4.5
Ventus Variabilis Ventus from Inter Austrum et Eurum
Gusts 6.9 mph

Hodie
High -- | Low -- °F
--% Chance of Precip.
Yesterday
High -- | Low -- °F
Precip. -- in
Pressio 29.92 in
Visibilitas 6.2 milia passuum
Clouds Few 2000 ft
Plerumque Nubila 4000 ft
Frigus Venti 46 °F
Frigus in quo Ros apparet 45 °F
Umor 90%
Rainfall 0.06 in
Snow Depth Not available.
7:32 AM 5:06 PM
Waxing Gibbous, 87% visible
METAR LIRA 180350Z 17004KT 130V200 9999 -RA FEW020 BKN040 10/08 Q1013
Pressio 29.92 in
Visibilitas 6.2 milia passuum
Clouds Few 2000 ft
Plerumque Nubila 4000 ft
Frigus Venti 46 °F
Frigus in quo Ros apparet 45 °F
Umor 90%
Rainfall 0.06 in
Snow Depth Not available.
7:32 AM 5:06 PM
Waxing Gibbous, 87% visible
METAR LIRA 180350Z 17004KT 130V200 9999 -RA FEW020 BKN040 10/08 Q1013

Get Severe Weather Alerts

Thanks for signing up!

Be on the lookout for a verification email in your inbox.

You'll start receiving the daily forecast at 6 AM.

×

10-Day Weather Forecast

×

Almanac

Astronomy

Jan. 18, 2019 Rise Set
Actual Time
Civil Twilight
Nautical Twilight
Astronomical Twilight
Moon
Length Of Visible Light
Length of Day
Tomorrow will be .
, % of the Moon is Illuminated

Today's Extremes

Country Highs Country Lows

Community

WunderPhotos

Category 6

Welcome to Category 6. This is the collective home for Weather Underground's featured writeups by Dr. Jeff Masters (right), Bob Henson (left), Chris Burt, and other regular contributors.

Nearby

Air Quality

  Air Quality AQ Index Pollutant
Not available.

Snow Depth

Station Depth Elevation

Earthquake Activity

City Distance Mag. Time & Date
Minimum magnitude displayed is 2.5.

Coastal Water Temperatures

Locus Calor

Stations

Nearby Weather Stations

Station Location Temp Frigus Venti Frigus in quo Ros apparet Umor Ventus Precip. Elev Renovata Type